Arroyo Barril, Dominican Republic

9:25 PM AST on March 01, 2015 (GMT -0400)
ISAMANAL3 | Change Station
CLOSE
Current Station
Personal Weather Station
Location: Coyamar / Las Terrenas, SAMANA
Elevation: 30 ft
Nearby Weather Stations

Elev 30 ft 19.31 °N, 69.56 °W | Updated 37 seconds ago

Partly Cloudy
Partly Cloudy
76.3 °F
Feels Like 78 °F
N
0.0
Wind Variable Wind from NE
Gusts 0.0 mph

Today
High -- | Low -- °F
--% Chance of Precip.
Yesterday
High -- | Low -- °F
Precip. -- in
6:57 AM 6:43 PM
Waxing Gibbous, 88% visible
Pressure 30.09 in
Visibility 6.2 miles
Clouds Few 1800 ft
Heat Index 78 °F
Dew Point 65 °F
Humidity 69%
Rainfall 0.43 in
Snow Depth Not available.
UV 1.0 out of 12
Pollen Not available.
Air Quality Not available.
Flu Activity Not available.
METAR MDLR 020100Z 02005KT 9999 FEW018 23/22 Q1019

More Conditions Fewer Conditions

Pressure 30.09 in
Visibility 6.2 miles
Clouds Few 1800 ft
Heat Index 78 °F
Dew Point 65 °F
Humidity 69%
Rainfall 0.43 in
Snow Depth Not available.
UV 1.0 out of 12
Pollen Not available.
Air Quality Not available.
Flu Activity Not available.
METAR MDLR 020100Z 02005KT 9999 FEW018 23/22 Q1019

More Conditions Fewer Conditions

10-Day Weather Forecast

Almanac

Astronomy

Mar. 01, 2015 Rise Set
Actual Time
Civil Twilight
Nautical Twilight
Astronomical Twilight
Moon
Length of Visible Light
Length of Day
Tomorrow will be .
, % of the Moon is Illuminated

Today's Extremes

Country Highs Country Lows

Community

WunderPhotos

Upload Photos

1,801,678 photos uploaded!

WunderBlogs® & News

Nearby

Air Quality

  Air Quality AQ Index Pollutant
Not available.

Snow Depth

Station Depth Elevation

Earthquake Activity

City Distance Mag. Time & Date
Minimum magnitude displayed is 2.5.

Coastal Water Temperatures

Place Temperature

Nearby Weather Stations